createdAt,value
2023-08-15T00:00:32.487Z,3.05
2023-08-15T00:02:59.330Z,2.63
2023-08-15T00:05:25.978Z,2.88
2023-08-15T00:07:52.575Z,3.08
2023-08-15T00:10:19.166Z,2.80
2023-08-15T00:12:45.788Z,2.60
2023-08-15T00:15:12.431Z,3.00
2023-08-15T00:17:39.111Z,3.08
2023-08-15T00:20:07.096Z,2.83
2023-08-15T00:22:33.690Z,2.67
2023-08-15T00:25:00.332Z,2.95
2023-08-15T00:27:26.949Z,3.28
2023-08-15T00:29:53.549Z,2.90
2023-08-15T00:32:20.152Z,3.20
2023-08-15T00:34:46.718Z,3.20
2023-08-15T00:37:13.312Z,3.38
2023-08-15T00:39:42.089Z,2.67
2023-08-15T00:42:08.925Z,3.47
2023-08-15T00:44:35.557Z,3.40
2023-08-15T00:47:02.103Z,3.45
2023-08-15T00:49:28.930Z,3.35
2023-08-15T00:51:55.544Z,3.13
2023-08-15T00:54:22.107Z,3.45
2023-08-15T00:56:48.677Z,3.40
2023-08-15T00:59:15.450Z,2.75
2023-08-15T01:01:42.019Z,3.63
2023-08-15T01:04:08.654Z,2.75
2023-08-15T01:06:35.261Z,3.05
2023-08-15T01:09:01.857Z,2.80
2023-08-15T01:11:31.314Z,3.42
2023-08-15T01:13:59.786Z,3.08
2023-08-15T01:16:27.219Z,3.30
2023-08-15T01:18:58.231Z,3.05
2023-08-15T01:21:29.324Z,3.35
2023-08-15T01:23:55.969Z,3.17
2023-08-15T01:26:22.588Z,2.60
2023-08-15T01:28:49.176Z,2.95
2023-08-15T01:31:21.581Z,3.53
2023-08-15T01:34:06.019Z,3.28
2023-08-15T01:36:39.838Z,3.67
2023-08-15T01:39:06.992Z,3.55
2023-08-15T01:41:34.195Z,3.17
2023-08-15T01:44:01.294Z,3.03
2023-08-15T01:46:27.879Z,3.15
2023-08-15T01:48:54.475Z,3.35
2023-08-15T01:51:21.056Z,3.58
2023-08-15T01:53:47.657Z,2.13
2023-08-15T01:56:14.394Z,3.05
2023-08-15T01:58:41.014Z,3.08
2023-08-15T02:01:07.636Z,3.13
2023-08-15T02:03:34.232Z,2.97
2023-08-15T02:06:00.932Z,3.35
2023-08-15T02:08:27.535Z,2.97
2023-08-15T02:10:54.220Z,2.80
2023-08-15T02:13:20.972Z,3.50
2023-08-15T02:15:47.582Z,3.05
2023-08-15T02:18:14.271Z,3.22
2023-08-15T02:20:41.027Z,3.10
2023-08-15T02:23:07.642Z,3.25
2023-08-15T02:25:34.209Z,3.08
2023-08-15T02:28:00.852Z,3.00
2023-08-15T02:30:27.444Z,2.78
2023-08-15T02:32:54.096Z,2.65
2023-08-15T02:35:20.721Z,3.08
2023-08-15T02:37:47.290Z,2.75
2023-08-15T02:40:13.974Z,2.33
2023-08-15T02:42:40.574Z,3.33
2023-08-15T02:45:07.750Z,3.45
2023-08-15T02:47:34.377Z,2.78
2023-08-15T02:50:01.055Z,3.30
2023-08-15T02:52:27.710Z,3.17
2023-08-15T02:54:54.292Z,2.85
2023-08-15T02:57:21.127Z,3.30
2023-08-15T02:59:47.901Z,3.03
2023-08-15T03:02:14.509Z,2.80
2023-08-15T03:04:41.157Z,3.00
2023-08-15T03:07:07.757Z,3.40
2023-08-15T03:09:34.342Z,2.88
2023-08-15T03:12:00.935Z,3.38
2023-08-15T03:14:30.589Z,2.72
2023-08-15T03:16:57.298Z,2.90
2023-08-15T03:19:23.876Z,2.90
2023-08-15T03:21:50.450Z,2.80
2023-08-15T03:24:17.090Z,2.78
2023-08-15T03:26:43.677Z,3.00
2023-08-15T03:29:10.273Z,2.80
2023-08-15T03:31:36.883Z,2.75
2023-08-15T03:34:03.547Z,2.85
2023-08-15T03:36:30.148Z,3.25
2023-08-15T03:38:56.770Z,3.20
2023-08-15T03:41:23.390Z,2.55
2023-08-15T03:43:50.039Z,2.47
2023-08-15T03:46:16.674Z,2.83
2023-08-15T03:48:43.312Z,2.83
2023-08-15T03:51:12.807Z,3.10
2023-08-15T03:53:39.639Z,2.97
2023-08-15T03:56:06.248Z,2.90
2023-08-15T03:58:32.824Z,2.78
2023-08-15T04:00:59.425Z,2.67
2023-08-15T04:03:26.125Z,2.92
2023-08-15T04:05:52.678Z,3.03
2023-08-15T04:08:19.246Z,2.90
2023-08-15T04:10:46.667Z,3.28
2023-08-15T04:13:13.429Z,3.03
2023-08-15T04:15:40.123Z,2.85
2023-08-15T04:18:08.287Z,3.15
2023-08-15T04:20:41.669Z,2.92
2023-08-15T04:23:08.417Z,2.70
2023-08-15T04:25:35.400Z,2.65
2023-08-15T04:28:02.360Z,2.83
2023-08-15T04:30:30.115Z,2.63
2023-08-15T04:32:56.884Z,3.08
2023-08-15T04:35:23.533Z,3.00
2023-08-15T04:37:50.186Z,3.30
2023-08-15T04:40:21.551Z,3.13
2023-08-15T04:42:48.161Z,3.63
2023-08-15T04:45:14.800Z,3.05
2023-08-15T04:47:41.416Z,3.25
2023-08-15T04:50:08.571Z,3.70
2023-08-15T04:52:35.184Z,3.25
2023-08-15T04:55:01.761Z,3.22
2023-08-15T04:57:28.351Z,2.95
2023-08-15T04:59:54.925Z,3.80
2023-08-15T05:02:21.517Z,2.95
2023-08-15T05:04:48.100Z,3.53
2023-08-15T05:07:14.677Z,3.55
2023-08-15T05:09:41.368Z,3.78
2023-08-15T05:12:08.597Z,3.55
2023-08-15T05:14:35.196Z,3.80
2023-08-15T05:17:01.772Z,4.13
2023-08-15T05:19:28.380Z,5.82
2023-08-15T05:21:54.976Z,4.70
2023-08-15T05:24:21.664Z,4.72
2023-08-15T05:26:48.248Z,4.00
2023-08-15T05:29:14.834Z,4.47
2023-08-15T05:31:41.489Z,3.92
2023-08-15T05:34:10.176Z,4.00
2023-08-15T05:36:37.926Z,4.50
2023-08-15T05:39:04.543Z,3.80
2023-08-15T05:41:31.900Z,3.42
2023-08-15T05:43:58.508Z,3.90
2023-08-15T05:46:25.106Z,3.90
2023-08-15T05:48:51.730Z,4.13
2023-08-15T05:51:18.326Z,3.70
2023-08-15T05:53:44.898Z,3.50
2023-08-15T05:56:11.513Z,3.17
2023-08-15T05:58:38.093Z,3.00
2023-08-15T06:01:04.719Z,3.10
2023-08-15T06:03:49.620Z,2.92
2023-08-15T06:06:17.888Z,3.42
2023-08-15T06:08:44.448Z,3.60
2023-08-15T06:11:11.000Z,3.20
2023-08-15T06:13:37.610Z,2.53
2023-08-15T06:16:04.332Z,2.85
2023-08-15T06:18:30.925Z,2.92
2023-08-15T06:20:57.667Z,2.72
2023-08-15T06:23:24.265Z,3.00
2023-08-15T06:25:50.886Z,3.38
2023-08-15T06:28:17.506Z,2.88
2023-08-15T06:30:44.060Z,2.63
2023-08-15T06:33:10.729Z,3.45
2023-08-15T06:35:37.318Z,2.95
2023-08-15T06:38:04.072Z,2.97
2023-08-15T06:40:31.701Z,3.17
2023-08-15T06:42:58.312Z,2.95
2023-08-15T06:45:24.945Z,3.17
2023-08-15T06:47:51.586Z,2.92
2023-08-15T06:50:18.704Z,2.97
2023-08-15T06:52:45.324Z,3.42
2023-08-15T06:55:11.850Z,2.75
2023-08-15T06:57:38.428Z,2.88
2023-08-15T07:00:05.636Z,2.53
2023-08-15T07:02:32.345Z,3.05
2023-08-15T07:04:59.005Z,2.65
2023-08-15T07:07:25.607Z,3.00
2023-08-15T07:09:52.277Z,2.50
2023-08-15T07:12:19.065Z,3.17
2023-08-15T07:14:46.307Z,2.85
2023-08-15T07:17:12.983Z,3.15
2023-08-15T07:19:39.599Z,3.08
2023-08-15T07:22:06.271Z,3.42
2023-08-15T07:24:32.897Z,3.58
2023-08-15T07:26:59.530Z,2.95
2023-08-15T07:29:26.100Z,3.38
2023-08-15T07:31:52.729Z,2.83
2023-08-15T07:34:19.442Z,2.35
2023-08-15T07:36:46.114Z,3.08
2023-08-15T07:39:12.704Z,3.22
2023-08-15T07:41:40.713Z,3.08
2023-08-15T07:44:07.310Z,2.78
2023-08-15T07:46:33.891Z,3.20
2023-08-15T07:49:01.191Z,3.10
2023-08-15T07:51:27.950Z,2.85
2023-08-15T07:53:54.564Z,3.00
2023-08-15T07:56:21.174Z,3.10
2023-08-15T07:58:47.770Z,2.90
2023-08-15T08:01:14.424Z,3.35
2023-08-15T08:03:41.077Z,2.47
2023-08-15T08:06:12.389Z,3.10
2023-08-15T08:08:47.876Z,3.72
2023-08-15T08:11:14.695Z,3.20
2023-08-15T08:13:41.277Z,3.92
2023-08-15T08:16:07.937Z,2.78
2023-08-15T08:18:34.598Z,3.75
2023-08-15T08:21:01.886Z,3.63
2023-08-15T08:23:28.486Z,3.65
2023-08-15T08:25:55.104Z,3.65
2023-08-15T08:28:21.684Z,4.32
2023-08-15T08:30:48.460Z,3.63
2023-08-15T08:33:15.037Z,4.18
2023-08-15T08:35:41.620Z,4.45
2023-08-15T08:38:08.309Z,4.57
2023-08-15T08:40:34.914Z,4.72
2023-08-15T08:43:01.645Z,3.42
2023-08-15T08:45:28.428Z,3.78
2023-08-15T08:47:55.104Z,3.78
2023-08-15T08:50:21.783Z,3.95
2023-08-15T08:52:48.341Z,4.22
2023-08-15T08:55:15.006Z,3.97
2023-08-15T08:57:41.631Z,3.92
2023-08-15T09:00:08.891Z,4.25
2023-08-15T09:02:35.627Z,4.40
2023-08-15T09:05:04.998Z,4.00
2023-08-15T09:07:32.762Z,4.20
2023-08-15T09:09:59.385Z,4.45
2023-08-15T09:12:41.490Z,3.35
2023-08-15T09:15:08.754Z,3.88
2023-08-15T09:17:35.462Z,4.82
2023-08-15T09:20:14.706Z,4.32
2023-08-15T09:22:47.431Z,4.32
2023-08-15T09:25:14.675Z,4.10
2023-08-15T09:27:41.292Z,4.30
2023-08-15T09:30:11.930Z,4.35
2023-08-15T09:32:40.077Z,3.30
2023-08-15T09:35:08.588Z,4.00
2023-08-15T09:37:35.252Z,4.03
2023-08-15T09:40:01.963Z,3.13
2023-08-15T09:42:31.441Z,3.65
2023-08-15T09:44:58.023Z,3.63
2023-08-15T09:47:24.869Z,2.92
2023-08-15T09:49:52.827Z,2.88
2023-08-15T09:52:19.449Z,3.53
2023-08-15T09:54:46.021Z,3.53
2023-08-15T09:57:12.637Z,3.05
2023-08-15T09:59:39.302Z,2.83
2023-08-15T10:02:05.996Z,3.08
2023-08-15T10:04:32.880Z,2.70
2023-08-15T10:06:59.453Z,2.50
2023-08-15T10:09:26.746Z,3.70
2023-08-15T10:11:53.388Z,3.47
2023-08-15T10:14:20.026Z,2.80
2023-08-15T10:16:46.692Z,3.63
2023-08-15T10:19:15.487Z,2.97
2023-08-15T10:21:52.500Z,2.58
2023-08-15T10:24:19.317Z,3.15
2023-08-15T10:26:46.619Z,3.17
2023-08-15T10:29:13.624Z,3.05
2023-08-15T10:31:41.266Z,3.10
2023-08-15T10:34:11.475Z,3.55
2023-08-15T10:36:41.258Z,3.47
2023-08-15T10:39:08.099Z,3.28
2023-08-15T10:41:35.446Z,3.08
2023-08-15T10:44:03.037Z,3.63
2023-08-15T10:46:30.683Z,3.40
2023-08-15T10:49:12.441Z,3.55
2023-08-15T10:51:40.209Z,3.15
2023-08-15T10:54:08.995Z,4.32
2023-08-15T10:56:39.297Z,3.40
2023-08-15T10:59:13.119Z,3.88
2023-08-15T11:01:41.794Z,4.10
2023-08-15T11:04:10.985Z,3.65
2023-08-15T11:07:04.004Z,4.03
2023-08-15T11:09:30.698Z,4.65
2023-08-15T11:12:07.771Z,4.32
2023-08-15T11:14:34.385Z,3.95
2023-08-15T11:17:00.994Z,4.10
2023-08-15T11:19:27.775Z,4.28
2023-08-15T11:21:54.393Z,4.32
2023-08-15T11:24:21.002Z,3.75
2023-08-15T11:26:47.649Z,4.07
2023-08-15T11:29:15.232Z,3.58
2023-08-15T11:31:42.472Z,3.97
2023-08-15T11:34:09.521Z,3.97
2023-08-15T11:36:37.075Z,4.10
2023-08-15T11:39:03.861Z,3.50
2023-08-15T11:41:32.034Z,4.38
2023-08-15T11:44:00.002Z,4.43
2023-08-15T11:46:31.107Z,5.32
2023-08-15T11:49:03.354Z,4.90
2023-08-15T11:51:30.050Z,4.90
2023-08-15T11:53:56.624Z,5.60
2023-08-15T11:56:23.370Z,6.00
2023-08-15T11:58:50.046Z,6.53
2023-08-15T12:01:16.824Z,6.03
2023-08-15T12:03:43.508Z,5.78
2023-08-15T12:06:11.151Z,6.38
2023-08-15T12:08:39.427Z,6.38
2023-08-15T12:11:07.845Z,6.90
2023-08-15T12:13:41.441Z,5.60
2023-08-15T12:16:09.609Z,6.20
2023-08-15T12:18:36.370Z,6.13
2023-08-15T12:21:03.325Z,5.43
2023-08-15T12:23:30.068Z,5.03
2023-08-15T12:25:56.840Z,5.57
2023-08-15T12:28:23.545Z,5.18
2023-08-15T12:30:50.371Z,4.55
2023-08-15T12:33:27.562Z,4.53
2023-08-15T12:36:03.742Z,5.13
2023-08-15T12:38:30.453Z,4.82
2023-08-15T12:40:57.062Z,3.55
2023-08-15T12:43:23.787Z,3.80
2023-08-15T12:45:50.538Z,3.28
2023-08-15T12:48:17.316Z,3.40
2023-08-15T12:50:43.904Z,3.38
2023-08-15T12:53:10.577Z,3.53
2023-08-15T12:55:37.250Z,3.40
2023-08-15T12:58:04.241Z,3.10
2023-08-15T13:00:31.163Z,3.17
2023-08-15T13:02:58.087Z,3.78
2023-08-15T13:05:24.808Z,3.03
2023-08-15T13:07:51.481Z,3.17
2023-08-15T13:10:18.144Z,3.25
2023-08-15T13:12:44.784Z,3.50
2023-08-15T13:15:11.492Z,2.97
2023-08-15T13:17:38.181Z,2.78
2023-08-15T13:20:05.270Z,2.30
2023-08-15T13:22:31.839Z,2.33
2023-08-15T13:24:58.474Z,2.33
2023-08-15T13:27:25.144Z,2.38
2023-08-15T13:29:51.912Z,2.05
2023-08-15T13:32:18.568Z,2.17
2023-08-15T13:34:45.198Z,2.55
2023-08-15T13:37:11.836Z,1.77
2023-08-15T13:39:38.448Z,2.10
2023-08-15T13:42:05.231Z,2.13
2023-08-15T13:44:31.840Z,1.58
2023-08-15T13:46:58.444Z,1.40
2023-08-15T13:49:25.116Z,1.50
2023-08-15T13:51:51.732Z,1.63
2023-08-15T13:54:18.314Z,1.60
2023-08-15T13:56:44.872Z,1.60
2023-08-15T13:59:11.434Z,1.75
2023-08-15T14:01:38.081Z,1.60
2023-08-15T14:04:04.997Z,1.42
2023-08-15T14:06:31.594Z,1.33
2023-08-15T14:08:58.374Z,1.58
2023-08-15T14:11:24.967Z,1.50
2023-08-15T14:13:51.597Z,1.70
2023-08-15T14:16:18.261Z,1.67
2023-08-15T14:18:45.054Z,1.52
2023-08-15T14:21:14.428Z,1.73
2023-08-15T14:23:42.342Z,1.42
2023-08-15T14:26:08.946Z,1.52
2023-08-15T14:28:35.587Z,1.10
2023-08-15T14:31:05.917Z,1.20
2023-08-15T14:33:32.653Z,1.10
2023-08-15T14:35:59.290Z,1.48
2023-08-15T14:38:25.865Z,1.17
2023-08-15T14:40:52.970Z,1.10
2023-08-15T14:43:19.519Z,1.08
2023-08-15T14:45:46.118Z,0.90
2023-08-15T14:48:12.721Z,1.02
2023-08-15T14:50:39.342Z,0.85
2023-08-15T14:53:05.996Z,0.90
2023-08-15T14:55:33.190Z,0.90
2023-08-15T14:57:59.941Z,0.90
2023-08-15T15:00:26.627Z,0.73
2023-08-15T15:02:53.267Z,1.13
2023-08-15T15:05:19.932Z,1.20
2023-08-15T15:07:46.483Z,0.40
2023-08-15T15:10:13.083Z,0.90
2023-08-15T15:12:40.069Z,1.30
2023-08-15T15:15:07.596Z,0.98
2023-08-15T15:17:34.205Z,0.80
2023-08-15T15:20:00.968Z,0.80
2023-08-15T15:22:27.614Z,1.05
2023-08-15T15:24:54.256Z,0.93
2023-08-15T15:27:20.854Z,1.20
2023-08-15T15:29:47.419Z,1.05
2023-08-15T15:32:14.007Z,1.00
2023-08-15T15:34:40.609Z,0.90
2023-08-15T15:37:07.263Z,1.50
2023-08-15T15:39:33.932Z,1.55
2023-08-15T15:42:00.639Z,1.00
2023-08-15T15:44:27.967Z,1.20
2023-08-15T15:46:55.809Z,1.33
2023-08-15T15:49:23.144Z,1.52
2023-08-15T15:51:49.714Z,1.27
2023-08-15T15:54:16.273Z,1.40
2023-08-15T15:56:42.936Z,1.60
2023-08-15T15:59:09.631Z,1.50
2023-08-15T16:01:36.277Z,1.77
2023-08-15T16:04:03.365Z,1.60
2023-08-15T16:06:29.993Z,1.60
2023-08-15T16:08:56.590Z,1.23
2023-08-15T16:11:23.199Z,1.40
2023-08-15T16:13:49.865Z,1.52
2023-08-15T16:16:16.482Z,1.30
2023-08-15T16:18:43.714Z,1.42
2023-08-15T16:21:10.272Z,1.02
2023-08-15T16:23:36.938Z,1.40
2023-08-15T16:26:03.544Z,1.30
2023-08-15T16:28:30.134Z,1.20
2023-08-15T16:30:56.750Z,1.40
2023-08-15T16:33:23.331Z,1.20
2023-08-15T16:35:49.922Z,1.10
2023-08-15T16:38:16.559Z,1.17
2023-08-15T16:40:43.327Z,1.27
2023-08-15T16:43:10.562Z,1.13
2023-08-15T16:45:38.296Z,1.10
2023-08-15T16:48:05.179Z,1.10
2023-08-15T16:50:31.885Z,0.90
2023-08-15T16:53:00.642Z,1.25
2023-08-15T16:55:27.822Z,1.30
2023-08-15T16:57:54.422Z,1.30
2023-08-15T17:00:21.044Z,1.20
2023-08-15T17:02:47.782Z,1.83
2023-08-15T17:05:14.587Z,1.58
2023-08-15T17:07:41.186Z,1.38
2023-08-15T17:10:08.159Z,1.30
2023-08-15T17:12:34.816Z,1.23
2023-08-15T17:15:01.501Z,1.13
2023-08-15T17:17:28.094Z,1.48
2023-08-15T17:19:54.844Z,1.42
2023-08-15T17:22:21.622Z,1.27
2023-08-15T17:24:48.443Z,1.13
2023-08-15T17:27:15.122Z,1.02
2023-08-15T17:29:41.746Z,1.40
2023-08-15T17:32:08.394Z,1.77
2023-08-15T17:34:35.503Z,1.60
2023-08-15T17:37:02.501Z,1.50
2023-08-15T17:39:29.238Z,1.20
2023-08-15T17:41:56.269Z,1.50
2023-08-15T17:44:23.282Z,1.23
2023-08-15T17:46:50.423Z,1.17
2023-08-15T17:49:17.605Z,0.80
2023-08-15T17:51:44.431Z,1.50
2023-08-15T17:54:11.021Z,1.20
2023-08-15T17:56:37.603Z,1.27
2023-08-15T17:59:04.301Z,1.10
2023-08-15T18:01:30.938Z,1.65
2023-08-15T18:03:57.724Z,1.10
2023-08-15T18:06:24.397Z,1.10
2023-08-15T18:08:51.168Z,1.02
2023-08-15T18:11:17.762Z,1.20
2023-08-15T18:13:44.338Z,1.42
2023-08-15T18:16:11.033Z,1.20
2023-08-15T18:18:37.669Z,1.33
2023-08-15T18:21:04.334Z,0.77
2023-08-15T18:23:30.949Z,1.92
2023-08-15T18:25:57.647Z,1.10
2023-08-15T18:28:24.300Z,1.20
2023-08-15T18:30:50.872Z,1.42
2023-08-15T18:33:17.597Z,1.10
2023-08-15T18:35:44.256Z,1.60
2023-08-15T18:38:10.853Z,1.10
2023-08-15T18:40:39.401Z,0.93
2023-08-15T18:43:08.188Z,0.90
2023-08-15T18:45:34.775Z,0.90
2023-08-15T18:48:01.417Z,1.00
2023-08-15T18:50:28.109Z,0.60
2023-08-15T18:52:54.660Z,0.80
2023-08-15T18:55:21.246Z,1.00
2023-08-15T18:57:47.877Z,0.70
2023-08-15T19:00:17.163Z,0.70
2023-08-15T19:02:45.010Z,0.85
2023-08-15T19:05:11.743Z,0.80
2023-08-15T19:07:38.314Z,0.70
2023-08-15T19:10:05.602Z,0.60
2023-08-15T19:12:32.207Z,0.65
2023-08-15T19:14:58.778Z,0.77
2023-08-15T19:17:25.362Z,0.70
2023-08-15T19:19:51.944Z,0.65
2023-08-15T19:22:18.526Z,0.80
2023-08-15T19:24:45.656Z,0.80
2023-08-15T19:27:12.431Z,0.50
2023-08-15T19:29:39.042Z,0.70
2023-08-15T19:32:05.945Z,0.75
2023-08-15T19:34:32.548Z,0.93
2023-08-15T19:36:59.212Z,0.90
2023-08-15T19:39:25.747Z,0.60
2023-08-15T19:41:52.424Z,0.75
2023-08-15T19:44:19.154Z,0.52
2023-08-15T19:46:45.757Z,0.82
2023-08-15T19:49:12.342Z,1.02
2023-08-15T19:51:38.912Z,0.75
2023-08-15T19:54:05.752Z,1.00
2023-08-15T19:56:32.379Z,0.70
2023-08-15T19:58:58.912Z,0.77
2023-08-15T20:01:25.648Z,0.82
2023-08-15T20:03:52.338Z,0.80
2023-08-15T20:06:18.943Z,0.90
2023-08-15T20:08:45.553Z,1.10
2023-08-15T20:11:12.166Z,0.60
2023-08-15T20:13:38.874Z,1.20
2023-08-15T20:16:05.537Z,1.00
2023-08-15T20:18:32.190Z,0.52
2023-08-15T20:20:59.264Z,1.20
2023-08-15T20:23:25.919Z,1.15
2023-08-15T20:25:52.611Z,0.75
2023-08-15T20:28:19.277Z,1.00
2023-08-15T20:30:46.073Z,0.82
2023-08-15T20:33:12.705Z,0.90
2023-08-15T20:35:39.370Z,0.80
2023-08-15T20:38:06.049Z,0.68
2023-08-15T20:40:32.865Z,0.90
2023-08-15T20:42:59.564Z,0.85
2023-08-15T20:45:26.461Z,0.70
2023-08-15T20:47:53.165Z,0.98
2023-08-15T20:50:21.096Z,0.80
2023-08-15T20:52:47.676Z,0.80
2023-08-15T20:55:14.306Z,0.90
2023-08-15T20:57:41.433Z,0.80
2023-08-15T21:00:08.541Z,1.08
2023-08-15T21:02:35.261Z,0.93
2023-08-15T21:05:02.895Z,0.77
2023-08-15T21:07:29.551Z,0.90
2023-08-15T21:09:56.270Z,0.93
2023-08-15T21:12:23.173Z,0.98
2023-08-15T21:14:50.028Z,0.68
2023-08-15T21:17:16.824Z,0.77
2023-08-15T21:19:43.477Z,0.93
2023-08-15T21:22:10.074Z,1.17
2023-08-15T21:24:36.739Z,0.80
2023-08-15T21:27:03.418Z,1.15
2023-08-15T21:29:30.026Z,0.70
2023-08-15T21:31:56.611Z,0.80
2023-08-15T21:34:23.274Z,0.95
2023-08-15T21:36:49.888Z,0.70
2023-08-15T21:39:16.581Z,0.77
2023-08-15T21:41:43.261Z,1.00
2023-08-15T21:44:09.846Z,0.70
2023-08-15T21:46:36.539Z,0.70
2023-08-15T21:49:03.352Z,0.80
2023-08-15T21:51:29.937Z,1.13
2023-08-15T21:53:56.609Z,0.90
2023-08-15T21:56:23.209Z,0.82
2023-08-15T21:58:49.784Z,1.02
2023-08-15T22:01:16.414Z,0.90
2023-08-15T22:03:43.177Z,0.82
2023-08-15T22:06:09.828Z,0.98
2023-08-15T22:08:36.428Z,1.00
2023-08-15T22:11:03.025Z,0.85
2023-08-15T22:13:29.634Z,0.88
2023-08-15T22:15:56.256Z,1.00
2023-08-15T22:18:23.273Z,0.80
2023-08-15T22:20:50.214Z,0.95
2023-08-15T22:23:16.937Z,0.90
2023-08-15T22:25:47.033Z,0.82
2023-08-15T22:28:13.815Z,0.75
2023-08-15T22:30:40.401Z,0.70
2023-08-15T22:33:07.011Z,1.05
2023-08-15T22:35:41.295Z,0.60
2023-08-15T22:38:08.102Z,0.57
2023-08-15T22:40:35.100Z,0.88
2023-08-15T22:43:01.717Z,0.80
2023-08-15T22:45:28.496Z,0.90
2023-08-15T22:47:55.230Z,0.80
2023-08-15T22:50:21.802Z,0.85
2023-08-15T22:52:48.428Z,0.90
2023-08-15T22:55:15.051Z,0.90
2023-08-15T22:57:41.652Z,0.95
2023-08-15T23:00:08.837Z,0.88
2023-08-15T23:02:35.567Z,0.93
2023-08-15T23:05:02.161Z,0.95
2023-08-15T23:07:28.745Z,0.90
2023-08-15T23:09:55.331Z,0.70
2023-08-15T23:12:21.891Z,0.65
2023-08-15T23:14:48.520Z,0.73
2023-08-15T23:17:15.134Z,0.73
2023-08-15T23:19:41.739Z,0.75
2023-08-15T23:22:08.290Z,1.67
2023-08-15T23:24:34.881Z,1.10
2023-08-15T23:27:01.592Z,1.13
2023-08-15T23:29:28.370Z,0.75
2023-08-15T23:31:55.076Z,0.80
2023-08-15T23:34:21.624Z,1.13
2023-08-15T23:36:48.212Z,0.82
2023-08-15T23:39:14.871Z,0.70
2023-08-15T23:41:41.408Z,0.90
2023-08-15T23:44:08.014Z,0.80
2023-08-15T23:46:34.667Z,0.88
2023-08-15T23:49:01.283Z,1.08
2023-08-15T23:51:27.883Z,0.57
2023-08-15T23:53:54.500Z,0.70
2023-08-15T23:56:21.109Z,0.80
2023-08-15T23:58:47.711Z,0.70
